Pelican — WDC4616 — position and weather

sailwx.info

Track history (hours):
 
Tides and Currents Weather Stations Pressure Air Temp Water Temp Dewpoint Dewpoint Depression Visibility Wind Speed Wind Dir Waves Ship Positions

Pelican

Owner: Scherba Jr., Stephen, Seattle, WA. More information available from US FCC via Universal Licensing System and Coast Guard Vessel Documentation Center.

Last reported at 2016-Jun-16 20:27 UTC. Time now 2016-Jun-26 02:59 UTC.
Position N 48°36' W 123°10'.
Warning: this ship's position is 9 days out of date.

Length 16 m; draft 2 m.

Type: Pleasure craft. MMSI: 367027560.

Date/timePositionNaut miles runAvg speedWind from/ knotsBaromVisibWave heightAir tempDewpointWater temp
2016-Jun-16 20:27N 48°36' W 123°10'8 8.5
2016-Jun-16 19:33N 48°29' W 123°07'38 9.2
2016-Jun-16 15:26N 47°58' W 122°34'8 9.2
2016-Jun-16 14:33N 47°51' W 122°27'10 9.6
2016-Jun-16 13:33N 47°42' W 122°25'1 0.1
2016-Jun-16 04:12N 47°41' W 122°24'1 1.5
2016-Jun-16 03:33N 47°40' W 122°24'  
2016-Jun-07 04:31N 47°38' W 122°20'0 0.0
2016-Jun-07 00:33N 47°38' W 122°20'0 0.0
2016-Jun-06 23:33N 47°38' W 122°20'0 0.0
2016-Jun-06 22:34N 47°38' W 122°20'0 0.0
2016-Jun-06 21:34N 47°38' W 122°20'0 0.0
2016-Jun-06 20:34N 47°38' W 122°20'  
Track history (hours):
 
Tides and Currents Weather Stations Pressure Air Temp Water Temp Dewpoint Dewpoint Depression Visibility Wind Speed Wind Dir Waves Ship Positions

Pelican

Owner: Scherba Jr., Stephen, Seattle, WA. More information available from US FCC via Universal Licensing System and Coast Guard Vessel Documentation Center.

Last reported at 2016-Jun-16 20:27 UTC. Time now 2016-Jun-26 02:59 UTC.
Position N 48°36' W 123°10'.
Warning: this ship's position is 9 days out of date.

Length 16 m; draft 2 m.

Type: Pleasure craft. MMSI: 367027560.

Date/timePositionNaut miles runAvg speedWind from/ knotsBaromVisibWave heightAir tempDewpointWater temp
2016-Jun-16 20:27N 48°36' W 123°10'8 8.5
2016-Jun-16 19:33N 48°29' W 123°07'38 9.2
2016-Jun-16 15:26N 47°58' W 122°34'8 9.2
2016-Jun-16 14:33N 47°51' W 122°27'10 9.6
2016-Jun-16 13:33N 47°42' W 122°25'1 0.1
2016-Jun-16 04:12N 47°41' W 122°24'1 1.5
2016-Jun-16 03:33N 47°40' W 122°24'  
2016-Jun-07 04:31N 47°38' W 122°20'0 0.0
2016-Jun-07 00:33N 47°38' W 122°20'0 0.0
2016-Jun-06 23:33N 47°38' W 122°20'0 0.0
2016-Jun-06 22:34N 47°38' W 122°20'0 0.0
2016-Jun-06 21:34N 47°38' W 122°20'0 0.0
2016-Jun-06 20:34N 47°38' W 122°20'  

Dump ship's entire track history